Kerry Airport

Airport
ICAO code: 
EIKY
Summary
ICAO Region: 
EUR
Territory: 
Location: 
Farranfore, Killarney,
Elevation: 
112 ft
Coordinates: 
Aerial View: 
52° 10' 51.242" N, 9° 31' 25.608" W
Metar
Observation
EIKY 211130Z 17006KT 9999 OVC026 06/02 Q1042
Station
Kerry Airport
Date/Time
2022-01-21 11:30:00
Wind direction
170°
Wind speed
06 kts
Lowest cloud amount
overcast
Temperature
6°C
Dew point
2°C
Humidity
75%
QNH
1042 hPa
Weather condition
n/a

Description

Small airport 7 nm north of Killarney, Ireland.

Climatology

Temperate Marine climate/Oceanic climate (Köppen climate classification Cfb). Moderately cool summer and comparatively warm winter with a temperature range of only 14°C. Prevailing south-westerly winds from the Atlantic Ocean.

Runways

Designator Length Width Surface Rops
7/25 1230 30 ASP No/No
8/26 2000 45 ASP Yes/Yes
Airport map: 
Aerial View: 

Accidents and Serious Incidents at or in the vicinity of EIKY

SKYbrary Partners:

Safety knowledge contributed by: